createdAt,value
2017-12-31T00:00:19.749Z,92.60
2017-12-31T00:00:51.337Z,93.30
2017-12-31T00:01:22.903Z,93.30
2017-12-31T00:01:54.475Z,94.30
2017-12-31T00:02:26.019Z,94.00
2017-12-31T00:02:57.583Z,93.90
2017-12-31T00:03:29.126Z,93.00
2017-12-31T00:04:00.687Z,93.90
2017-12-31T00:04:32.235Z,93.90
2017-12-31T00:05:03.792Z,93.20
2017-12-31T00:05:35.357Z,93.80
2017-12-31T00:06:06.923Z,93.20
2017-12-31T00:06:38.494Z,94.10
2017-12-31T00:07:10.061Z,93.20
2017-12-31T00:07:41.610Z,93.90
2017-12-31T00:08:13.159Z,93.80
2017-12-31T00:08:44.747Z,93.30
2017-12-31T00:09:16.325Z,93.30
2017-12-31T00:09:47.895Z,94.30
2017-12-31T00:10:19.457Z,93.70
2017-12-31T00:10:51.031Z,94.00
2017-12-31T00:11:22.607Z,94.20
2017-12-31T00:11:54.177Z,93.70
2017-12-31T00:12:25.735Z,93.70
2017-12-31T00:12:57.323Z,94.60
2017-12-31T00:13:28.859Z,94.50
2017-12-31T00:14:00.444Z,93.90
2017-12-31T00:14:31.999Z,94.20
2017-12-31T00:15:03.563Z,94.40
2017-12-31T00:15:35.112Z,95.00
2017-12-31T00:16:06.679Z,92.80
2017-12-31T00:16:38.232Z,93.50
2017-12-31T00:17:09.789Z,93.50
2017-12-31T00:17:41.349Z,93.00
2017-12-31T00:18:12.903Z,93.80
2017-12-31T00:18:44.473Z,93.50
2017-12-31T00:19:16.021Z,93.50
2017-12-31T00:19:47.571Z,93.80
2017-12-31T00:20:19.127Z,94.80
2017-12-31T00:20:50.673Z,94.90
2017-12-31T00:21:22.243Z,95.00
2017-12-31T00:21:53.808Z,94.20
2017-12-31T00:22:25.363Z,94.80
2017-12-31T00:22:56.941Z,94.80
2017-12-31T00:23:28.503Z,94.00
2017-12-31T00:24:00.058Z,93.70
2017-12-31T00:24:31.617Z,94.70
2017-12-31T00:25:03.173Z,93.30
2017-12-31T00:25:34.735Z,94.50
2017-12-31T00:26:06.301Z,93.50
2017-12-31T00:26:37.854Z,93.20
2017-12-31T00:27:09.401Z,93.60
2017-12-31T00:27:41.019Z,93.00
2017-12-31T00:28:12.557Z,94.50
2017-12-31T00:28:44.103Z,94.90
2017-12-31T00:29:15.933Z,94.90
2017-12-31T00:29:47.511Z,94.30
2017-12-31T00:30:19.093Z,94.20
2017-12-31T00:30:50.641Z,94.60
2017-12-31T00:31:22.193Z,94.20
2017-12-31T00:31:53.798Z,93.90
2017-12-31T00:32:25.361Z,93.90
2017-12-31T00:32:56.927Z,92.80
2017-12-31T00:33:28.483Z,93.40
2017-12-31T00:34:00.032Z,94.20
2017-12-31T00:34:31.591Z,94.20
2017-12-31T00:35:03.173Z,94.60
2017-12-31T00:35:34.739Z,94.90
2017-12-31T00:36:06.323Z,95.00
2017-12-31T00:36:37.891Z,93.80
2017-12-31T00:37:09.435Z,93.60
2017-12-31T00:37:40.996Z,94.50
2017-12-31T00:38:12.545Z,94.70
2017-12-31T00:38:44.093Z,95.00
2017-12-31T00:39:15.673Z,94.70
2017-12-31T00:39:47.231Z,92.60
2017-12-31T00:40:18.783Z,93.70
2017-12-31T00:40:50.347Z,94.20
2017-12-31T00:41:21.891Z,94.10
2017-12-31T00:41:53.434Z,93.20
2017-12-31T00:42:25.001Z,94.50
2017-12-31T00:42:56.549Z,95.30
2017-12-31T00:43:28.099Z,95.30
2017-12-31T00:43:59.678Z,95.00
2017-12-31T00:44:31.217Z,94.80
2017-12-31T00:45:02.770Z,93.60
2017-12-31T00:45:34.323Z,94.70
2017-12-31T00:46:05.871Z,93.60
2017-12-31T00:46:37.449Z,94.20
2017-12-31T00:47:09.021Z,94.20
2017-12-31T00:47:40.563Z,94.90
2017-12-31T00:48:12.125Z,94.80
2017-12-31T00:48:43.687Z,95.50
2017-12-31T00:49:15.223Z,95.90
2017-12-31T00:49:46.777Z,95.10
2017-12-31T00:50:18.325Z,94.90
2017-12-31T00:50:49.865Z,95.20
2017-12-31T00:51:21.413Z,95.90
2017-12-31T00:51:52.971Z,96.00
2017-12-31T00:52:24.518Z,96.10
2017-12-31T00:52:56.063Z,95.70
2017-12-31T00:53:27.607Z,96.00
2017-12-31T00:53:59.155Z,95.80
2017-12-31T00:54:30.697Z,96.30
2017-12-31T00:55:02.279Z,95.90
2017-12-31T00:55:33.834Z,95.50
2017-12-31T00:56:05.379Z,94.70
2017-12-31T00:56:36.925Z,95.70
2017-12-31T00:57:08.495Z,95.90
2017-12-31T00:57:40.064Z,96.00
2017-12-31T00:58:11.607Z,95.60
2017-12-31T00:58:43.169Z,95.90
2017-12-31T00:59:14.739Z,95.60
2017-12-31T00:59:46.282Z,96.20
2017-12-31T01:00:17.846Z,96.50
2017-12-31T01:00:49.430Z,96.20
2017-12-31T01:01:20.973Z,96.50
2017-12-31T01:01:52.529Z,96.90
2017-12-31T01:02:24.109Z,96.80
2017-12-31T01:02:55.651Z,96.50
2017-12-31T01:03:27.223Z,96.40
2017-12-31T01:03:58.783Z,96.60
2017-12-31T01:04:30.325Z,96.50
2017-12-31T01:05:01.893Z,95.80
2017-12-31T01:05:33.431Z,95.30
2017-12-31T01:06:04.971Z,96.40
2017-12-31T01:06:36.523Z,96.80
2017-12-31T01:07:08.089Z,96.10
2017-12-31T01:07:39.647Z,96.50
2017-12-31T01:08:11.241Z,96.10
2017-12-31T01:08:42.791Z,96.50
2017-12-31T01:09:14.323Z,96.80
2017-12-31T01:09:45.889Z,96.80
2017-12-31T01:10:17.443Z,96.50
2017-12-31T01:10:48.981Z,96.60
2017-12-31T01:11:20.528Z,96.80
2017-12-31T01:11:52.106Z,97.30
2017-12-31T01:12:23.669Z,97.30
2017-12-31T01:12:55.229Z,97.30
2017-12-31T01:13:26.775Z,96.70
2017-12-31T01:13:58.327Z,96.70
2017-12-31T01:14:29.923Z,97.00
2017-12-31T01:15:01.483Z,97.30
2017-12-31T01:15:33.039Z,96.90
2017-12-31T01:16:04.582Z,96.40
2017-12-31T01:16:36.125Z,95.80
2017-12-31T01:17:07.679Z,94.90
2017-12-31T01:17:39.237Z,94.50
2017-12-31T01:18:10.783Z,95.30
2017-12-31T01:18:42.335Z,95.80
2017-12-31T01:19:13.891Z,96.50
2017-12-31T01:19:45.445Z,96.30
2017-12-31T01:20:17.001Z,95.50
2017-12-31T01:20:48.561Z,94.60
2017-12-31T01:21:20.111Z,95.60
2017-12-31T01:21:51.669Z,95.10
2017-12-31T01:22:23.215Z,94.50
2017-12-31T01:22:54.763Z,94.20
2017-12-31T01:23:26.309Z,95.20
2017-12-31T01:23:57.879Z,95.30
2017-12-31T01:24:29.447Z,95.30
2017-12-31T01:25:00.989Z,95.50
2017-12-31T01:25:32.533Z,95.40
2017-12-31T01:26:04.093Z,94.60
2017-12-31T01:26:35.629Z,94.80
2017-12-31T01:27:07.175Z,95.50
2017-12-31T01:27:38.730Z,94.70
2017-12-31T01:28:10.305Z,94.60
2017-12-31T01:28:41.844Z,93.90
2017-12-31T01:29:13.396Z,93.10
2017-12-31T01:29:44.955Z,94.60
2017-12-31T01:30:16.493Z,94.20
2017-12-31T01:30:48.053Z,93.40
2017-12-31T01:31:19.603Z,94.60
2017-12-31T01:31:51.149Z,95.00
2017-12-31T01:32:22.701Z,95.30
2017-12-31T01:32:54.251Z,95.00
2017-12-31T01:33:25.791Z,95.50
2017-12-31T01:33:57.347Z,94.90
2017-12-31T01:34:28.911Z,95.50
2017-12-31T01:35:00.471Z,95.10
2017-12-31T01:35:32.038Z,94.50
2017-12-31T01:36:03.593Z,94.90
2017-12-31T01:36:35.121Z,95.00
2017-12-31T01:37:06.655Z,94.60
2017-12-31T01:37:38.221Z,94.40
2017-12-31T01:38:09.791Z,93.90
2017-12-31T01:38:41.351Z,94.20
2017-12-31T01:39:12.879Z,95.20
2017-12-31T01:39:44.449Z,94.50
2017-12-31T01:40:15.995Z,95.40
2017-12-31T01:40:47.573Z,94.90
2017-12-31T01:41:19.133Z,95.60
2017-12-31T01:41:50.703Z,95.10
2017-12-31T01:42:22.275Z,95.20
2017-12-31T01:42:53.823Z,95.80
2017-12-31T01:43:25.385Z,95.40
2017-12-31T01:43:56.953Z,95.80
2017-12-31T01:44:28.539Z,95.20
2017-12-31T01:45:00.113Z,95.90
2017-12-31T01:45:31.667Z,95.80
2017-12-31T01:46:03.222Z,95.90
2017-12-31T01:46:34.782Z,96.30
2017-12-31T01:47:06.327Z,96.00
2017-12-31T01:47:37.893Z,95.60
2017-12-31T01:48:09.463Z,96.10
2017-12-31T01:48:59.785Z,96.20
2017-12-31T01:49:31.368Z,96.80
2017-12-31T01:50:02.993Z,95.40
2017-12-31T01:50:34.577Z,95.60
2017-12-31T01:51:06.151Z,95.80
2017-12-31T01:51:37.711Z,96.10
2017-12-31T01:52:09.269Z,96.00
2017-12-31T01:52:40.824Z,95.60
2017-12-31T01:53:12.397Z,96.10
2017-12-31T01:53:43.949Z,96.50
2017-12-31T01:54:15.501Z,96.20
2017-12-31T01:54:47.067Z,96.00
2017-12-31T01:55:18.613Z,96.10
2017-12-31T01:55:50.194Z,96.20
2017-12-31T01:56:21.744Z,96.50
2017-12-31T01:56:53.299Z,96.50
2017-12-31T01:57:24.881Z,96.10
2017-12-31T01:57:56.437Z,96.40
2017-12-31T01:58:27.987Z,96.50
2017-12-31T01:58:59.543Z,96.70
2017-12-31T01:59:31.081Z,96.80
2017-12-31T02:00:02.711Z,95.80
2017-12-31T02:00:34.266Z,96.20
2017-12-31T02:01:05.893Z,96.90
2017-12-31T02:01:37.471Z,97.00
2017-12-31T02:02:09.041Z,96.10
2017-12-31T02:02:40.613Z,96.70
2017-12-31T02:03:12.187Z,96.60
2017-12-31T02:03:43.748Z,96.70
2017-12-31T02:04:15.291Z,96.70
2017-12-31T02:04:46.861Z,96.80
2017-12-31T02:05:18.417Z,97.10
2017-12-31T02:05:49.987Z,97.10
2017-12-31T02:06:21.581Z,97.00
2017-12-31T02:06:53.149Z,97.30
2017-12-31T02:07:24.713Z,97.60
2017-12-31T02:07:56.277Z,97.20
2017-12-31T02:08:27.833Z,97.10
2017-12-31T02:08:59.395Z,97.20
2017-12-31T02:09:30.962Z,97.10
2017-12-31T02:10:02.555Z,97.10
2017-12-31T02:10:34.105Z,97.20
2017-12-31T02:11:05.671Z,97.00
2017-12-31T02:11:37.263Z,96.90
2017-12-31T02:12:08.831Z,96.30
2017-12-31T02:12:40.381Z,96.90
2017-12-31T02:13:11.925Z,97.00
2017-12-31T02:13:43.479Z,97.50
2017-12-31T02:14:15.037Z,97.40
2017-12-31T02:14:46.621Z,97.60
2017-12-31T02:15:18.187Z,97.60
2017-12-31T02:15:49.762Z,97.90
2017-12-31T02:16:21.324Z,97.80
2017-12-31T02:16:52.867Z,97.50
2017-12-31T02:17:24.443Z,97.30
2017-12-31T02:17:55.983Z,96.90
2017-12-31T02:18:27.547Z,97.50
2017-12-31T02:18:59.109Z,97.60
2017-12-31T02:19:30.703Z,97.20
2017-12-31T02:20:02.300Z,97.50
2017-12-31T02:20:33.899Z,97.10
2017-12-31T02:21:05.449Z,97.50
2017-12-31T02:21:37.009Z,97.50
2017-12-31T02:22:08.589Z,97.80
2017-12-31T02:22:40.143Z,97.00
2017-12-31T02:23:11.707Z,97.30
2017-12-31T02:23:43.263Z,97.50
2017-12-31T02:24:14.823Z,97.50
2017-12-31T02:24:46.371Z,97.10
2017-12-31T02:25:17.940Z,97.10
2017-12-31T02:25:49.475Z,97.50
2017-12-31T02:26:21.031Z,97.40
2017-12-31T02:26:52.583Z,97.40
2017-12-31T02:27:24.149Z,97.50
2017-12-31T02:27:55.716Z,97.40
2017-12-31T02:28:27.269Z,97.50
2017-12-31T02:28:58.819Z,97.50
2017-12-31T02:29:30.388Z,96.20
2017-12-31T02:30:01.961Z,97.30
2017-12-31T02:30:33.546Z,97.40
2017-12-31T02:31:05.097Z,97.50
2017-12-31T02:31:36.647Z,97.90
2017-12-31T02:32:08.216Z,98.00
2017-12-31T02:32:39.803Z,97.50
2017-12-31T02:33:11.365Z,97.70
2017-12-31T02:33:42.927Z,97.90
2017-12-31T02:34:14.469Z,98.00
2017-12-31T02:34:46.027Z,98.20
2017-12-31T02:35:17.587Z,98.20
2017-12-31T02:35:49.161Z,98.40
2017-12-31T02:36:20.707Z,98.40
2017-12-31T02:36:52.273Z,98.10
2017-12-31T02:37:23.849Z,97.80
2017-12-31T02:37:55.425Z,97.50
2017-12-31T02:38:26.981Z,97.20
2017-12-31T02:38:58.535Z,97.50
2017-12-31T02:39:30.145Z,97.50
2017-12-31T02:40:01.702Z,97.30
2017-12-31T02:40:33.256Z,97.80
2017-12-31T02:41:04.831Z,97.80
2017-12-31T02:41:36.381Z,97.90
2017-12-31T02:42:07.938Z,98.20
2017-12-31T02:42:39.535Z,98.70
2017-12-31T02:43:11.099Z,98.70
2017-12-31T02:43:42.684Z,98.70
2017-12-31T02:44:14.252Z,99.10
2017-12-31T02:44:45.815Z,98.80
2017-12-31T02:45:17.401Z,98.60
2017-12-31T02:45:48.987Z,99.10
2017-12-31T02:46:20.545Z,98.60
2017-12-31T02:46:52.094Z,98.50
2017-12-31T02:47:23.655Z,98.30
2017-12-31T02:47:55.211Z,98.80
2017-12-31T02:48:26.755Z,98.50
2017-12-31T02:48:58.313Z,98.80
2017-12-31T02:49:29.880Z,98.60
2017-12-31T02:50:01.426Z,98.80
2017-12-31T02:50:32.999Z,98.90
2017-12-31T02:51:04.559Z,98.90
2017-12-31T02:51:36.105Z,99.10
2017-12-31T02:52:07.661Z,99.10
2017-12-31T02:52:39.197Z,98.80
2017-12-31T02:53:10.771Z,99.00
2017-12-31T02:53:42.369Z,98.70
2017-12-31T02:54:13.919Z,98.70
2017-12-31T02:54:45.471Z,98.50
2017-12-31T02:55:17.043Z,98.80
2017-12-31T02:55:48.583Z,98.80
2017-12-31T02:56:20.146Z,98.60
2017-12-31T02:56:51.703Z,98.70
2017-12-31T02:57:23.256Z,98.50
2017-12-31T02:57:54.787Z,98.80
2017-12-31T02:58:26.339Z,98.90
2017-12-31T02:58:57.911Z,98.80
2017-12-31T02:59:29.453Z,98.80
2017-12-31T03:00:01.007Z,98.80
2017-12-31T03:00:32.555Z,98.80
2017-12-31T03:01:04.148Z,98.90
2017-12-31T03:01:35.695Z,98.80
2017-12-31T03:02:07.283Z,98.60
2017-12-31T03:02:38.835Z,98.50
2017-12-31T03:03:10.411Z,98.30
2017-12-31T03:03:41.975Z,98.40
2017-12-31T03:04:13.546Z,98.40
2017-12-31T03:04:45.102Z,98.00
2017-12-31T03:05:16.651Z,98.20
2017-12-31T03:05:48.193Z,98.40
2017-12-31T03:06:19.751Z,97.80
2017-12-31T03:06:51.318Z,98.10
2017-12-31T03:07:22.867Z,98.50
2017-12-31T03:07:54.415Z,98.50
2017-12-31T03:08:25.981Z,98.60
2017-12-31T03:08:57.531Z,98.70
2017-12-31T03:09:29.099Z,98.50
2017-12-31T03:10:00.656Z,98.70
2017-12-31T03:10:32.209Z,98.30
2017-12-31T03:11:03.791Z,98.40
2017-12-31T03:11:35.344Z,98.20
2017-12-31T03:12:06.895Z,97.50
2017-12-31T03:12:38.461Z,98.10
2017-12-31T03:13:10.022Z,98.10
2017-12-31T03:13:41.587Z,97.90
2017-12-31T03:14:13.132Z,97.60
2017-12-31T03:14:44.703Z,97.70
2017-12-31T03:15:16.261Z,98.00
2017-12-31T03:15:47.835Z,98.20
2017-12-31T03:16:19.383Z,98.10
2017-12-31T03:16:50.941Z,98.40
2017-12-31T03:17:22.496Z,98.50
2017-12-31T03:17:54.067Z,98.50
2017-12-31T03:18:25.615Z,98.70
2017-12-31T03:18:57.169Z,98.40
2017-12-31T03:19:28.717Z,98.40
2017-12-31T03:20:00.272Z,98.70
2017-12-31T03:20:31.836Z,98.70
2017-12-31T03:21:03.391Z,98.80
2017-12-31T03:21:34.939Z,98.80
2017-12-31T03:22:06.502Z,98.90
2017-12-31T03:22:38.057Z,99.00
2017-12-31T03:23:09.619Z,98.90
2017-12-31T03:23:41.186Z,99.00
2017-12-31T03:24:12.727Z,98.90
2017-12-31T03:24:44.267Z,98.90
2017-12-31T03:25:15.823Z,98.70
2017-12-31T03:25:47.388Z,98.80
2017-12-31T03:26:18.973Z,98.50
2017-12-31T03:26:50.541Z,98.20
2017-12-31T03:27:22.110Z,98.30
2017-12-31T03:27:53.661Z,98.40
2017-12-31T03:28:25.213Z,98.40
2017-12-31T03:28:56.771Z,98.40
2017-12-31T03:29:28.331Z,98.40
2017-12-31T03:29:59.897Z,98.40
2017-12-31T03:30:31.472Z,98.40
2017-12-31T03:31:03.031Z,98.40
2017-12-31T03:31:34.587Z,98.40
2017-12-31T03:32:06.137Z,98.30
2017-12-31T03:32:37.691Z,97.90
2017-12-31T03:33:09.303Z,97.60
2017-12-31T03:33:40.868Z,97.80
2017-12-31T03:34:12.421Z,98.10
2017-12-31T03:34:43.981Z,98.20
2017-12-31T03:35:15.547Z,98.10
2017-12-31T03:35:47.105Z,98.10
2017-12-31T03:36:18.656Z,98.00
2017-12-31T03:36:50.235Z,97.70
2017-12-31T03:37:21.791Z,98.00
2017-12-31T03:37:53.343Z,98.10
2017-12-31T03:38:24.898Z,98.00
2017-12-31T03:38:56.477Z,98.20
2017-12-31T03:39:28.030Z,97.50
2017-12-31T03:39:59.577Z,97.20
2017-12-31T03:40:31.153Z,97.60
2017-12-31T03:41:02.729Z,98.00
2017-12-31T03:41:34.287Z,98.00
2017-12-31T03:42:05.851Z,98.00
2017-12-31T03:42:37.413Z,97.80
2017-12-31T03:43:08.985Z,97.50
2017-12-31T03:43:40.527Z,97.50
2017-12-31T03:44:12.105Z,97.70
2017-12-31T03:44:43.669Z,97.80
2017-12-31T03:45:15.233Z,97.70
2017-12-31T03:45:46.775Z,97.30
2017-12-31T03:46:26.197Z,97.40
2017-12-31T03:46:57.753Z,97.80
2017-12-31T03:47:29.305Z,97.80
2017-12-31T03:48:00.862Z,98.10
2017-12-31T03:48:32.403Z,97.70
2017-12-31T03:49:03.959Z,97.10
2017-12-31T03:49:35.503Z,97.50
2017-12-31T03:50:07.055Z,97.70
2017-12-31T03:50:38.619Z,97.90
2017-12-31T03:51:10.177Z,97.70
2017-12-31T03:51:41.767Z,98.10
2017-12-31T03:52:13.321Z,98.00
2017-12-31T03:52:44.863Z,97.90
2017-12-31T03:53:16.433Z,97.90
2017-12-31T03:53:47.975Z,97.90
2017-12-31T03:54:19.525Z,98.10
2017-12-31T03:54:51.073Z,98.10
2017-12-31T03:55:22.615Z,97.60
2017-12-31T03:55:54.151Z,97.80
2017-12-31T03:56:25.697Z,97.70
2017-12-31T03:56:57.256Z,97.70
2017-12-31T03:57:28.831Z,97.30
2017-12-31T03:58:00.384Z,97.40
2017-12-31T03:58:31.929Z,97.60
2017-12-31T03:59:03.495Z,97.60
2017-12-31T03:59:35.035Z,97.70
2017-12-31T04:00:06.597Z,97.00
2017-12-31T04:00:38.161Z,97.40
2017-12-31T04:01:09.741Z,97.00
2017-12-31T04:01:41.335Z,97.30
2017-12-31T04:02:13.369Z,97.50
2017-12-31T04:02:44.925Z,97.60
2017-12-31T04:03:16.483Z,97.30
2017-12-31T04:03:48.069Z,97.60
2017-12-31T04:04:19.635Z,97.30
2017-12-31T04:04:51.188Z,96.10
2017-12-31T04:05:22.743Z,97.00
2017-12-31T04:05:54.291Z,97.40
2017-12-31T04:06:25.855Z,97.60
2017-12-31T04:06:57.429Z,97.60
2017-12-31T04:07:29.035Z,97.80
2017-12-31T04:08:00.581Z,97.90
2017-12-31T04:08:32.133Z,97.40
2017-12-31T04:09:03.749Z,97.70
2017-12-31T04:09:35.283Z,97.80
2017-12-31T04:10:06.835Z,98.00
2017-12-31T04:10:38.403Z,97.90
2017-12-31T04:11:09.950Z,98.10
2017-12-31T04:11:41.505Z,98.10
2017-12-31T04:12:13.061Z,98.20
2017-12-31T04:12:44.625Z,98.10
2017-12-31T04:13:16.183Z,98.30
2017-12-31T04:13:47.741Z,98.00
2017-12-31T04:14:19.286Z,97.60
2017-12-31T04:14:50.841Z,97.80
2017-12-31T04:15:22.433Z,98.00
2017-12-31T04:15:53.972Z,98.00
2017-12-31T04:16:25.527Z,98.10
2017-12-31T04:16:57.102Z,98.20
2017-12-31T04:17:28.651Z,98.20
2017-12-31T04:18:00.217Z,98.30
2017-12-31T04:18:31.783Z,98.40
2017-12-31T04:19:03.353Z,98.30
2017-12-31T04:19:34.924Z,98.30
2017-12-31T04:20:06.479Z,98.40
2017-12-31T04:20:38.029Z,98.30
2017-12-31T04:21:09.877Z,98.40
2017-12-31T04:21:41.463Z,98.30
2017-12-31T04:22:13.019Z,98.40
2017-12-31T04:22:44.602Z,98.40
2017-12-31T04:23:16.173Z,98.30
2017-12-31T04:23:47.717Z,98.20
2017-12-31T04:24:19.267Z,98.30
2017-12-31T04:24:50.821Z,98.20
2017-12-31T04:25:22.356Z,98.30
2017-12-31T04:25:53.905Z,98.20
2017-12-31T04:26:25.457Z,98.40
2017-12-31T04:26:57.011Z,98.40
2017-12-31T04:27:28.563Z,98.20
2017-12-31T04:28:00.125Z,98.30
2017-12-31T04:28:31.694Z,98.40
2017-12-31T04:29:03.253Z,98.60
2017-12-31T04:29:34.813Z,98.40
2017-12-31T04:30:06.367Z,98.50
2017-12-31T04:30:37.933Z,98.70
2017-12-31T04:31:09.499Z,98.70
2017-12-31T04:31:41.109Z,98.50
2017-12-31T04:32:12.672Z,98.80
2017-12-31T04:32:44.235Z,98.80
2017-12-31T04:33:15.785Z,98.80
2017-12-31T04:33:47.335Z,98.80
2017-12-31T04:34:18.895Z,99.10
2017-12-31T04:34:50.453Z,98.60
2017-12-31T04:35:21.985Z,98.80
2017-12-31T04:35:53.555Z,98.80
2017-12-31T04:36:25.109Z,98.80
2017-12-31T04:36:56.671Z,98.90
2017-12-31T04:37:28.215Z,98.90
2017-12-31T04:37:59.772Z,98.90
2017-12-31T04:38:31.319Z,99.10
2017-12-31T04:39:02.931Z,98.90
2017-12-31T04:39:34.507Z,99.00
2017-12-31T04:40:06.059Z,99.10
2017-12-31T04:40:37.675Z,99.10
2017-12-31T04:41:09.223Z,99.00
2017-12-31T04:41:40.787Z,99.20
2017-12-31T04:42:12.355Z,99.20
2017-12-31T04:42:43.919Z,99.20
2017-12-31T04:43:15.470Z,99.20
2017-12-31T04:43:47.014Z,99.30
2017-12-31T04:44:18.573Z,99.20
2017-12-31T04:44:50.125Z,99.20
2017-12-31T04:45:21.684Z,99.20
2017-12-31T04:45:53.231Z,99.40
2017-12-31T04:46:24.777Z,99.10
2017-12-31T04:46:56.329Z,99.40
2017-12-31T04:47:27.881Z,99.40
2017-12-31T04:47:59.431Z,99.40
2017-12-31T04:48:30.983Z,99.50
2017-12-31T04:49:02.525Z,99.40
2017-12-31T04:49:34.069Z,99.50
2017-12-31T04:50:05.630Z,99.60
2017-12-31T04:50:37.170Z,99.60
2017-12-31T04:51:08.729Z,99.40
2017-12-31T04:51:40.286Z,99.60
2017-12-31T04:52:11.845Z,99.60
2017-12-31T04:52:43.381Z,99.70
2017-12-31T04:53:14.950Z,99.40
2017-12-31T04:53:46.492Z,99.60
2017-12-31T04:54:18.045Z,99.40
2017-12-31T04:54:49.607Z,99.60
2017-12-31T04:55:21.165Z,99.60
2017-12-31T04:55:52.711Z,99.70
2017-12-31T04:56:24.277Z,99.80
2017-12-31T04:56:55.839Z,99.70
2017-12-31T04:57:27.419Z,99.70
2017-12-31T04:57:58.985Z,99.90
2017-12-31T04:58:30.542Z,99.80
2017-12-31T04:59:02.085Z,99.90
2017-12-31T04:59:33.641Z,99.90
2017-12-31T05:00:05.211Z,99.90
2017-12-31T05:00:36.780Z,99.90
2017-12-31T05:01:08.349Z,99.90
2017-12-31T05:01:39.901Z,99.90
2017-12-31T05:02:11.471Z,99.90
2017-12-31T05:02:43.019Z,99.90
2017-12-31T05:03:14.560Z,99.90
2017-12-31T05:03:46.093Z,99.90
2017-12-31T05:04:17.659Z,99.90
2017-12-31T05:04:49.219Z,99.90
2017-12-31T05:05:20.789Z,99.90
2017-12-31T05:05:52.355Z,99.90
2017-12-31T05:06:23.903Z,99.90
2017-12-31T05:06:55.471Z,99.90
2017-12-31T05:07:27.035Z,99.90
2017-12-31T05:07:58.599Z,99.90
2017-12-31T05:08:30.137Z,99.90
2017-12-31T05:09:01.700Z,99.90
2017-12-31T05:09:33.282Z,99.90
2017-12-31T05:10:04.835Z,99.90
2017-12-31T05:10:36.390Z,99.90
2017-12-31T05:11:07.937Z,99.90
2017-12-31T05:11:39.504Z,99.90
2017-12-31T05:12:11.089Z,99.90
2017-12-31T05:12:42.655Z,99.90
2017-12-31T05:13:14.201Z,99.90
2017-12-31T05:13:45.751Z,99.90
2017-12-31T05:14:17.307Z,99.90
2017-12-31T05:14:48.832Z,99.90
2017-12-31T05:15:20.394Z,99.90
2017-12-31T05:15:51.973Z,99.90
2017-12-31T05:16:23.539Z,99.90
2017-12-31T05:16:55.412Z,99.90
2017-12-31T05:17:26.976Z,99.90
2017-12-31T05:17:58.519Z,99.90
2017-12-31T05:18:30.081Z,99.90
2017-12-31T05:19:01.635Z,99.90
2017-12-31T05:19:33.199Z,99.90
2017-12-31T05:20:04.782Z,99.90
2017-12-31T05:20:36.343Z,99.90
2017-12-31T05:21:07.913Z,99.90
2017-12-31T05:21:39.497Z,99.90
2017-12-31T05:22:11.043Z,99.90
2017-12-31T05:22:42.615Z,99.90
2017-12-31T05:23:14.169Z,99.90
2017-12-31T05:23:45.745Z,99.90
2017-12-31T05:24:17.337Z,99.90
2017-12-31T05:24:48.917Z,99.90
2017-12-31T05:25:20.465Z,99.90
2017-12-31T05:25:52.007Z,99.90
2017-12-31T05:26:23.563Z,99.90
2017-12-31T05:26:55.123Z,99.90
2017-12-31T05:27:26.681Z,99.90
2017-12-31T05:27:58.238Z,99.90
2017-12-31T05:28:29.787Z,99.90
2017-12-31T05:29:01.334Z,99.90
2017-12-31T05:29:32.903Z,99.70
2017-12-31T05:30:04.465Z,99.90
2017-12-31T05:30:36.047Z,99.90
2017-12-31T05:31:07.607Z,99.90
2017-12-31T05:31:39.188Z,99.40
2017-12-31T05:32:10.741Z,99.70
2017-12-31T05:32:42.291Z,99.70
2017-12-31T05:33:13.851Z,99.90
2017-12-31T05:33:45.395Z,99.70
2017-12-31T05:34:16.953Z,99.70
2017-12-31T05:34:48.503Z,99.50
2017-12-31T05:35:20.045Z,99.60
2017-12-31T05:35:51.601Z,99.40
2017-12-31T05:36:23.163Z,99.50
2017-12-31T05:36:54.711Z,99.40
2017-12-31T05:37:26.275Z,99.50
2017-12-31T05:37:57.840Z,99.40
2017-12-31T05:38:29.386Z,99.30
2017-12-31T05:39:00.945Z,99.50
2017-12-31T05:39:32.525Z,99.40
2017-12-31T05:40:04.085Z,99.20
2017-12-31T05:40:35.653Z,99.20
2017-12-31T05:41:07.231Z,99.20
2017-12-31T05:41:38.789Z,99.40
2017-12-31T05:42:10.374Z,98.90
2017-12-31T05:42:41.939Z,99.30
2017-12-31T05:43:13.523Z,99.40
2017-12-31T05:43:45.071Z,99.30
2017-12-31T05:44:16.595Z,99.30
2017-12-31T05:44:48.147Z,99.40
2017-12-31T05:45:19.703Z,99.00
2017-12-31T05:45:51.253Z,99.40
2017-12-31T05:46:22.816Z,99.20
2017-12-31T05:46:54.377Z,99.30
2017-12-31T05:47:25.969Z,98.90
2017-12-31T05:47:57.498Z,99.10
2017-12-31T05:48:29.049Z,98.90
2017-12-31T05:49:00.609Z,99.10
2017-12-31T05:49:32.157Z,98.90
2017-12-31T05:50:03.709Z,98.80
2017-12-31T05:50:35.279Z,99.10
2017-12-31T05:51:06.820Z,99.00
2017-12-31T05:51:38.362Z,98.90
2017-12-31T05:52:09.901Z,99.20
2017-12-31T05:52:41.453Z,99.30
2017-12-31T05:53:13.009Z,99.00
2017-12-31T05:53:44.575Z,99.10
2017-12-31T05:54:16.131Z,98.80
2017-12-31T05:54:47.707Z,98.90
2017-12-31T05:55:19.257Z,98.80
2017-12-31T05:55:50.781Z,98.80
2017-12-31T05:56:22.337Z,99.00
2017-12-31T05:56:53.909Z,98.80
2017-12-31T05:57:25.481Z,98.70
2017-12-31T05:57:57.047Z,98.80
2017-12-31T05:58:28.601Z,98.90
2017-12-31T05:59:00.162Z,98.80
2017-12-31T05:59:31.709Z,98.80
2017-12-31T06:00:03.277Z,98.80
2017-12-31T06:00:34.857Z,98.70
2017-12-31T06:01:06.429Z,98.40
2017-12-31T06:01:37.994Z,98.40
2017-12-31T06:02:09.561Z,98.50
2017-12-31T06:02:41.104Z,98.60
2017-12-31T06:03:12.669Z,98.70
2017-12-31T06:03:44.239Z,98.60
2017-12-31T06:04:15.794Z,98.60
2017-12-31T06:04:47.330Z,98.40
2017-12-31T06:05:18.873Z,98.60
2017-12-31T06:05:50.427Z,98.60
2017-12-31T06:06:21.985Z,98.30
2017-12-31T06:06:53.546Z,98.10
2017-12-31T06:07:25.098Z,98.20
2017-12-31T06:07:56.636Z,98.10
2017-12-31T06:08:28.207Z,98.00
2017-12-31T06:08:59.751Z,98.10
2017-12-31T06:09:31.292Z,97.90
2017-12-31T06:10:02.869Z,97.80
2017-12-31T06:10:34.423Z,97.70
2017-12-31T06:11:05.957Z,98.10
2017-12-31T06:11:37.508Z,98.30
2017-12-31T06:12:09.069Z,98.30
2017-12-31T06:12:40.624Z,98.10
2017-12-31T06:13:12.181Z,98.00
2017-12-31T06:13:43.722Z,98.10
2017-12-31T06:14:15.252Z,98.20
2017-12-31T06:14:46.808Z,98.20
2017-12-31T06:15:18.366Z,98.20
2017-12-31T06:15:49.902Z,98.10
2017-12-31T06:16:21.471Z,98.10
2017-12-31T06:16:53.019Z,97.70
2017-12-31T06:17:24.586Z,97.80
2017-12-31T06:17:56.151Z,97.90
2017-12-31T06:18:27.710Z,98.10
2017-12-31T06:18:59.278Z,97.90
2017-12-31T06:19:30.817Z,97.80
2017-12-31T06:20:02.365Z,97.90
2017-12-31T06:20:33.920Z,97.70
2017-12-31T06:21:05.481Z,98.10
2017-12-31T06:21:37.039Z,98.30
2017-12-31T06:22:08.600Z,98.40
2017-12-31T06:22:40.155Z,98.10
2017-12-31T06:23:11.717Z,98.40
2017-12-31T06:23:43.273Z,98.20
2017-12-31T06:24:14.830Z,98.20
2017-12-31T06:24:46.381Z,98.10
2017-12-31T06:25:17.948Z,98.00
2017-12-31T06:25:49.517Z,98.10
2017-12-31T06:26:21.049Z,98.10
2017-12-31T06:26:52.608Z,98.30
2017-12-31T06:27:24.150Z,98.70
2017-12-31T06:27:55.704Z,98.10
2017-12-31T06:28:27.232Z,98.10
2017-12-31T06:28:58.773Z,97.80
2017-12-31T06:29:30.303Z,98.10
2017-12-31T06:30:01.857Z,98.30
2017-12-31T06:30:33.406Z,98.10
2017-12-31T06:31:04.957Z,98.10
2017-12-31T06:31:36.516Z,98.10
2017-12-31T06:32:08.075Z,98.50
2017-12-31T06:32:39.635Z,98.00
2017-12-31T06:33:11.176Z,98.10
2017-12-31T06:33:42.728Z,98.10
2017-12-31T06:34:14.271Z,98.20
2017-12-31T06:34:45.830Z,98.10
2017-12-31T06:35:17.365Z,98.30
2017-12-31T06:35:48.909Z,98.40
2017-12-31T06:36:20.460Z,98.50
2017-12-31T06:36:52.007Z,98.50
2017-12-31T06:37:23.575Z,98.60
2017-12-31T06:37:55.146Z,98.80
2017-12-31T06:38:26.708Z,98.60
2017-12-31T06:38:58.261Z,98.50
2017-12-31T06:39:29.801Z,98.20
2017-12-31T06:40:01.357Z,98.10
2017-12-31T06:40:32.920Z,98.20
2017-12-31T06:41:04.483Z,98.40
2017-12-31T06:41:36.044Z,98.20
2017-12-31T06:42:07.617Z,98.50
2017-12-31T06:42:39.186Z,98.40
2017-12-31T06:43:10.728Z,98.10
2017-12-31T06:43:42.284Z,97.90
2017-12-31T06:44:13.842Z,98.00
2017-12-31T06:44:45.387Z,98.20
2017-12-31T06:45:16.959Z,98.30
2017-12-31T06:45:48.523Z,98.20
2017-12-31T06:46:20.065Z,98.30
2017-12-31T06:46:51.632Z,98.60